createdAt,value
2022-08-14T00:02:03.717Z,101788.75
2022-08-14T00:04:34.496Z,101787.25
2022-08-14T00:07:06.935Z,101773.19
2022-08-14T00:09:40.009Z,101769.72
2022-08-14T00:12:24.737Z,101779.63
2022-08-14T00:15:00.846Z,101772.03
2022-08-14T00:17:37.888Z,101769.63
2022-08-14T00:20:06.945Z,101774.00
2022-08-14T00:22:56.016Z,101773.09
2022-08-14T00:25:22.286Z,101768.22
2022-08-14T00:27:49.540Z,101762.47
2022-08-14T00:30:22.224Z,101764.75
2022-08-14T00:33:00.738Z,101760.09
2022-08-14T00:36:34.013Z,101763.13
2022-08-14T00:38:17.720Z,101754.84
2022-08-14T00:40:46.382Z,101761.41
2022-08-14T00:43:14.970Z,101753.28
2022-08-14T00:45:42.741Z,101761.69
2022-08-14T00:48:10.604Z,101756.50
2022-08-14T00:50:38.223Z,101760.63
2022-08-14T00:53:10.593Z,101753.19
2022-08-14T00:55:41.443Z,101760.91
2022-08-14T00:58:33.088Z,101755.81
2022-08-14T01:01:05.426Z,101754.69
2022-08-14T01:03:36.248Z,101749.56
2022-08-14T01:06:07.176Z,101750.84
2022-08-14T01:08:51.164Z,101749.56
2022-08-14T01:11:22.488Z,101747.50
2022-08-14T01:13:56.105Z,101746.50
2022-08-14T01:16:31.358Z,101741.06
2022-08-14T01:19:19.736Z,101736.16
2022-08-14T01:21:52.954Z,101741.59
2022-08-14T01:24:28.775Z,101744.06
2022-08-14T01:27:00.634Z,101739.38
2022-08-14T01:29:58.885Z,101738.16
2022-08-14T01:32:23.339Z,101746.13
2022-08-14T01:35:19.081Z,101743.59
2022-08-14T01:37:44.479Z,101742.63
2022-08-14T01:40:15.501Z,101740.19
2022-08-14T01:42:47.510Z,101744.84
2022-08-14T01:45:17.870Z,101745.63
2022-08-14T01:48:03.327Z,101747.75
2022-08-14T01:50:33.707Z,101745.88
2022-08-14T01:53:01.712Z,101751.34
2022-08-14T01:55:32.531Z,101741.31
2022-08-14T01:58:18.097Z,101750.75
2022-08-14T02:00:48.051Z,101744.19
2022-08-14T02:03:16.261Z,101744.78
2022-08-14T02:05:43.966Z,101741.25
2022-08-14T02:08:11.341Z,101748.63
2022-08-14T02:10:46.068Z,101736.47
2022-08-14T02:13:16.094Z,101744.78
2022-08-14T02:15:44.176Z,101743.22
2022-08-14T02:18:11.694Z,101744.44
2022-08-14T02:20:39.932Z,101746.94
2022-08-14T02:23:08.189Z,101750.88
2022-08-14T02:25:36.125Z,101745.44
2022-08-14T02:28:22.182Z,101740.00
2022-08-14T02:30:52.376Z,101741.25
2022-08-14T02:33:21.371Z,101738.78
2022-08-14T02:35:53.415Z,101739.50
2022-08-14T02:38:35.153Z,101740.00
2022-08-14T02:41:09.053Z,101734.78
2022-08-14T02:43:48.270Z,101730.69
2022-08-14T02:46:20.653Z,101736.03
2022-08-14T02:49:03.350Z,101731.06
2022-08-14T02:51:34.146Z,101726.88
2022-08-14T02:54:01.938Z,101729.88
2022-08-14T02:57:16.053Z,101725.06
2022-08-14T02:59:19.048Z,101720.31
2022-08-14T03:01:54.875Z,101725.41
2022-08-14T03:04:22.830Z,101722.47
2022-08-14T03:07:06.589Z,101721.56
2022-08-14T03:10:27.393Z,101715.28
2022-08-14T03:12:34.960Z,101713.78
2022-08-14T03:15:13.754Z,101713.56
2022-08-14T03:17:57.146Z,101722.47
2022-08-14T03:20:28.403Z,101720.91
2022-08-14T03:23:00.082Z,101713.13
2022-08-14T03:25:31.689Z,101718.75
2022-08-14T03:28:03.845Z,101718.69
2022-08-14T03:30:39.105Z,101721.88
2022-08-14T03:33:10.268Z,101726.47
2022-08-14T03:35:59.905Z,101728.25
2022-08-14T03:39:14.095Z,101723.06
2022-08-14T03:41:16.788Z,101727.06
2022-08-14T03:43:44.504Z,101718.16
2022-08-14T03:46:38.936Z,101724.19
2022-08-14T03:49:03.093Z,101722.81
2022-08-14T03:51:30.394Z,101722.75
2022-08-14T03:53:58.477Z,101716.59
2022-08-14T03:56:27.284Z,101719.84
2022-08-14T03:58:56.334Z,101722.56
2022-08-14T04:01:29.346Z,101716.94
2022-08-14T04:04:09.818Z,101706.91
2022-08-14T04:06:44.528Z,101715.44
2022-08-14T04:09:16.901Z,101719.00
2022-08-14T04:11:45.377Z,101722.13
2022-08-14T04:14:16.597Z,101722.66
2022-08-14T04:16:46.452Z,101717.84
2022-08-14T04:19:18.863Z,101721.69
2022-08-14T04:22:03.087Z,101712.50
2022-08-14T04:24:38.185Z,101713.19
2022-08-14T04:27:10.661Z,101713.66
2022-08-14T04:29:42.727Z,101714.88
2022-08-14T04:32:57.723Z,101712.63
2022-08-14T04:35:00.710Z,101706.72
2022-08-14T04:37:46.609Z,101712.75
2022-08-14T04:40:40.475Z,101711.22
2022-08-14T04:43:26.768Z,101705.53
2022-08-14T04:46:08.083Z,101709.00
2022-08-14T04:48:43.095Z,101715.03
2022-08-14T04:51:12.663Z,101720.13
2022-08-14T04:53:43.700Z,101705.56
2022-08-14T04:56:31.366Z,101707.47
2022-08-14T04:59:02.296Z,101709.56
2022-08-14T05:01:39.622Z,101717.69
2022-08-14T05:04:08.792Z,101712.38
2022-08-14T05:06:43.541Z,101710.16
2022-08-14T05:09:14.160Z,101709.69
2022-08-14T05:11:42.443Z,101710.25
2022-08-14T05:14:16.691Z,101708.97
2022-08-14T05:17:02.076Z,101706.66
2022-08-14T05:19:32.053Z,101697.78
2022-08-14T05:22:16.100Z,101700.06
2022-08-14T05:24:48.637Z,101713.34
2022-08-14T05:27:22.890Z,101692.59
2022-08-14T05:29:53.623Z,101700.63
2022-08-14T05:32:23.465Z,101698.03
2022-08-14T05:34:58.133Z,101694.59
2022-08-14T05:37:27.342Z,101689.38
2022-08-14T05:39:55.700Z,101692.59
2022-08-14T05:42:27.261Z,101690.00
2022-08-14T05:44:59.938Z,101687.59
2022-08-14T05:47:28.604Z,101676.53
2022-08-14T05:49:57.661Z,101684.19
2022-08-14T05:52:38.441Z,101677.56
2022-08-14T05:55:12.374Z,101684.59
2022-08-14T05:57:46.643Z,101679.44
2022-08-14T06:00:24.968Z,101675.13
2022-08-14T06:02:57.069Z,101671.66
2022-08-14T06:05:24.721Z,101671.94
2022-08-14T06:07:57.524Z,101672.94
2022-08-14T06:10:25.337Z,101666.16
2022-08-14T06:12:57.379Z,101668.19
2022-08-14T06:15:30.104Z,101664.69
2022-08-14T06:17:59.199Z,101666.88
2022-08-14T06:20:28.236Z,101666.59
2022-08-14T06:22:57.078Z,101661.47
2022-08-14T06:25:24.991Z,101667.59
2022-08-14T06:27:53.558Z,101668.66
2022-08-14T06:30:23.155Z,101659.25
2022-08-14T06:32:52.848Z,101665.47
2022-08-14T06:35:21.166Z,101664.63
2022-08-14T06:37:56.749Z,101656.00
2022-08-14T06:40:29.031Z,101655.75
2022-08-14T06:43:00.323Z,101651.47
2022-08-14T06:45:31.572Z,101660.97
2022-08-14T06:47:59.413Z,101650.47
2022-08-14T06:50:28.622Z,101648.13
2022-08-14T06:52:58.738Z,101650.97
2022-08-14T06:55:28.266Z,101651.53
2022-08-14T06:57:57.743Z,101647.59
2022-08-14T07:00:26.928Z,101657.38
2022-08-14T07:03:14.301Z,101650.97
2022-08-14T07:05:55.603Z,101650.06
2022-08-14T07:08:31.601Z,101644.91
2022-08-14T07:11:01.112Z,101657.56
2022-08-14T07:13:30.564Z,101648.88
2022-08-14T07:16:00.497Z,101649.22
2022-08-14T07:18:30.107Z,101645.81
2022-08-14T07:20:58.791Z,101641.94
2022-08-14T07:23:26.662Z,101646.34
2022-08-14T07:25:55.360Z,101650.84
2022-08-14T07:28:28.788Z,101648.13
2022-08-14T07:31:04.190Z,101645.41
2022-08-14T07:33:34.902Z,101648.88
2022-08-14T07:36:09.029Z,101648.75
2022-08-14T07:38:52.346Z,101634.19
2022-08-14T07:41:19.925Z,101636.91
2022-08-14T07:43:55.203Z,101634.34
2022-08-14T07:46:28.447Z,101641.03
2022-08-14T07:48:57.152Z,101638.09
2022-08-14T07:51:24.588Z,101651.97
2022-08-14T07:53:57.110Z,101636.75
2022-08-14T07:56:47.673Z,101633.84
2022-08-14T07:59:12.833Z,101647.31
2022-08-14T08:01:48.475Z,101637.94
2022-08-14T08:04:24.228Z,101628.97
2022-08-14T08:06:53.244Z,101636.78
2022-08-14T08:09:24.061Z,101632.63
2022-08-14T08:11:54.440Z,101637.63
2022-08-14T08:14:25.345Z,101627.16
2022-08-14T08:16:55.101Z,101641.84
2022-08-14T08:19:22.573Z,101637.50
2022-08-14T08:21:50.048Z,101632.56
2022-08-14T08:24:20.948Z,101626.53
2022-08-14T08:26:50.397Z,101624.00
2022-08-14T08:29:24.949Z,101619.47
2022-08-14T08:31:56.748Z,101623.31
2022-08-14T08:34:29.405Z,101617.59
2022-08-14T08:36:58.597Z,101618.47
2022-08-14T08:39:30.743Z,101615.75
2022-08-14T08:42:10.248Z,101627.47
2022-08-14T08:44:37.519Z,101615.50
2022-08-14T08:47:06.784Z,101611.47
2022-08-14T08:49:48.124Z,101610.13
2022-08-14T08:52:31.302Z,101600.94
2022-08-14T08:55:10.697Z,101609.34
2022-08-14T08:57:41.237Z,101600.91
2022-08-14T09:00:24.432Z,101596.88
2022-08-14T09:02:57.776Z,101592.69
2022-08-14T09:05:26.131Z,101588.78
2022-08-14T09:07:56.701Z,101587.44
2022-08-14T09:10:27.093Z,101594.06
2022-08-14T09:12:56.363Z,101591.56
2022-08-14T09:15:24.214Z,101594.34
2022-08-14T09:17:52.052Z,101586.91
2022-08-14T09:20:26.244Z,101576.94
2022-08-14T09:22:58.513Z,101585.75
2022-08-14T09:26:00.141Z,101576.50
2022-08-14T09:28:14.355Z,101574.47
2022-08-14T09:30:44.086Z,101575.03
2022-08-14T09:33:17.304Z,101568.59
2022-08-14T09:36:13.779Z,101564.38
2022-08-14T09:38:46.851Z,101563.31
2022-08-14T09:42:21.252Z,101571.94
2022-08-14T09:44:39.189Z,101550.56
2022-08-14T09:47:10.967Z,101556.75
2022-08-14T09:49:42.889Z,101545.97
2022-08-14T09:52:32.630Z,101548.38
2022-08-14T09:55:02.820Z,101554.84
2022-08-14T09:57:33.656Z,101543.63
2022-08-14T10:00:12.050Z,101543.72
2022-08-14T10:03:05.600Z,101550.06
2022-08-14T10:05:34.419Z,101549.53
2022-08-14T10:08:16.354Z,101542.34
2022-08-14T10:11:02.372Z,101529.59
2022-08-14T10:13:43.139Z,101533.00
2022-08-14T10:16:25.943Z,101532.09
2022-08-14T10:19:21.340Z,101530.97
2022-08-14T10:23:13.696Z,101525.69
2022-08-14T10:24:50.814Z,101525.19
2022-08-14T10:27:19.871Z,101531.44
2022-08-14T10:30:12.242Z,101530.44
2022-08-14T10:32:51.258Z,101528.75
2022-08-14T10:35:23.053Z,101528.75
2022-08-14T10:37:51.488Z,101532.19
2022-08-14T10:40:43.742Z,101522.94
2022-08-14T10:43:31.933Z,101508.28
2022-08-14T10:46:21.724Z,101511.47
2022-08-14T10:48:56.728Z,101508.25
2022-08-14T10:51:30.329Z,101507.97
2022-08-14T10:54:25.971Z,101508.44
2022-08-14T10:56:53.278Z,101494.22
2022-08-14T10:59:22.323Z,101507.16
2022-08-14T11:01:50.862Z,101506.69
2022-08-14T11:04:20.459Z,101499.09
2022-08-14T11:06:54.082Z,101485.56
2022-08-14T11:09:21.744Z,101483.75
2022-08-14T11:11:55.393Z,101486.03
2022-08-14T11:14:26.609Z,101481.22
2022-08-14T11:16:54.396Z,101483.50
2022-08-14T11:19:24.353Z,101471.88
2022-08-14T11:21:56.098Z,101477.63
2022-08-14T11:24:50.517Z,101485.38
2022-08-14T11:27:16.912Z,101479.34
2022-08-14T11:29:48.368Z,101480.56
2022-08-14T11:32:20.384Z,101474.34
2022-08-14T11:34:47.793Z,101479.72
2022-08-14T11:37:18.233Z,101474.66
2022-08-14T11:39:51.386Z,101476.97
2022-08-14T11:42:58.433Z,101475.66
2022-08-14T11:45:17.040Z,101474.38
2022-08-14T11:48:12.816Z,101463.78
2022-08-14T11:50:37.905Z,101467.00
2022-08-14T11:53:07.662Z,101475.44
2022-08-14T11:55:40.095Z,101464.13
2022-08-14T11:58:10.780Z,101467.94
2022-08-14T12:00:53.797Z,101469.50
2022-08-14T12:03:37.622Z,101466.25
2022-08-14T12:06:28.477Z,101454.81
2022-08-14T12:09:00.775Z,101457.44
2022-08-14T12:11:38.384Z,101453.16
2022-08-14T12:14:13.456Z,101450.19
2022-08-14T12:17:12.868Z,101450.69
2022-08-14T12:19:45.970Z,101442.47
2022-08-14T12:22:29.869Z,101452.97
2022-08-14T12:24:58.124Z,101444.06
2022-08-14T12:27:41.243Z,101435.91
2022-08-14T12:30:10.082Z,101431.06
2022-08-14T12:32:40.697Z,101438.56
2022-08-14T12:35:10.675Z,101436.69
2022-08-14T12:37:40.043Z,101435.25
2022-08-14T12:40:15.676Z,101428.53
2022-08-14T12:42:53.729Z,101427.84
2022-08-14T12:45:30.746Z,101420.44
2022-08-14T12:48:21.493Z,101417.41
2022-08-14T12:50:53.924Z,101417.06
2022-08-14T12:53:22.059Z,101419.69
2022-08-14T12:56:18.637Z,101415.84
2022-08-14T12:58:52.392Z,101406.66
2022-08-14T13:01:21.478Z,101401.44
2022-08-14T13:03:51.781Z,101411.63
2022-08-14T13:06:20.559Z,101405.84
2022-08-14T13:08:53.249Z,101402.72
2022-08-14T13:11:24.143Z,101405.72
2022-08-14T13:13:56.524Z,101403.19
2022-08-14T13:16:33.746Z,101393.97
2022-08-14T13:19:11.022Z,101393.75
2022-08-14T13:21:58.437Z,101397.38
2022-08-14T13:24:27.634Z,101385.31
2022-08-14T13:26:58.434Z,101387.00
2022-08-14T13:29:29.753Z,101381.19
2022-08-14T13:31:59.008Z,101370.84
2022-08-14T13:34:29.974Z,101371.38
2022-08-14T13:37:03.975Z,101384.19
2022-08-14T13:39:36.417Z,101378.97
2022-08-14T13:42:10.915Z,101371.38
2022-08-14T13:44:45.240Z,101368.56
2022-08-14T13:47:14.838Z,101367.63
2022-08-14T13:49:57.793Z,101368.69
2022-08-14T13:52:51.714Z,101359.34
2022-08-14T13:55:15.682Z,101353.38
2022-08-14T13:57:49.877Z,101347.47
2022-08-14T14:00:35.989Z,101341.53
2022-08-14T14:03:20.887Z,101344.97
2022-08-14T14:05:54.509Z,101345.28
2022-08-14T14:08:43.315Z,101336.16
2022-08-14T14:11:14.185Z,101332.59
2022-08-14T14:13:48.572Z,101321.22
2022-08-14T14:16:26.661Z,101320.50
2022-08-14T14:19:06.827Z,101318.50
2022-08-14T14:21:37.477Z,101321.00
2022-08-14T14:24:06.259Z,101311.41
2022-08-14T14:26:36.090Z,101316.94
2022-08-14T14:29:06.401Z,101313.53
2022-08-14T14:31:36.483Z,101314.09
2022-08-14T14:34:19.920Z,101309.97
2022-08-14T14:36:57.609Z,101314.94
2022-08-14T14:39:26.834Z,101324.69
2022-08-14T14:41:59.487Z,101317.72
2022-08-14T14:44:35.975Z,101301.91
2022-08-14T14:47:03.546Z,101306.34
2022-08-14T14:49:51.608Z,101306.47
2022-08-14T14:52:27.568Z,101309.09
2022-08-14T14:54:58.459Z,101303.56
2022-08-14T14:57:34.794Z,101304.06
2022-08-14T15:00:21.499Z,101305.81
2022-08-14T15:02:51.533Z,101298.59
2022-08-14T15:05:20.183Z,101296.50
2022-08-14T15:07:48.319Z,101296.00
2022-08-14T15:10:27.739Z,101292.34
2022-08-14T15:13:00.182Z,101299.53
2022-08-14T15:15:32.729Z,101304.41
2022-08-14T15:18:01.030Z,101301.44
2022-08-14T15:20:31.458Z,101297.44
2022-08-14T15:23:12.004Z,101295.66
2022-08-14T15:25:41.075Z,101287.19
2022-08-14T15:28:12.703Z,101289.72
2022-08-14T15:30:41.328Z,101284.94
2022-08-14T15:33:09.357Z,101278.38
2022-08-14T15:35:37.959Z,101282.78
2022-08-14T15:38:12.402Z,101283.78
2022-08-14T15:40:51.233Z,101280.50
2022-08-14T15:43:27.197Z,101291.75
2022-08-14T15:45:56.693Z,101286.63
2022-08-14T15:48:24.009Z,101284.03
2022-08-14T15:50:51.871Z,101281.56
2022-08-14T15:53:22.429Z,101287.47
2022-08-14T15:55:53.041Z,101284.91
2022-08-14T15:58:21.711Z,101279.38
2022-08-14T16:01:07.770Z,101278.56
2022-08-14T16:03:40.932Z,101276.44
2022-08-14T16:06:15.329Z,101278.78
2022-08-14T16:08:58.511Z,101280.06
2022-08-14T16:11:28.842Z,101281.16
2022-08-14T16:14:01.116Z,101275.25
2022-08-14T16:16:49.498Z,101281.16
2022-08-14T16:19:18.395Z,101281.16
2022-08-14T16:22:01.170Z,101276.78
2022-08-14T16:24:33.520Z,101279.38
2022-08-14T16:27:01.666Z,101279.56
2022-08-14T16:29:33.164Z,101279.56
2022-08-14T16:32:33.321Z,101276.22
2022-08-14T16:34:54.879Z,101273.28
2022-08-14T16:37:23.552Z,101277.94
2022-08-14T16:40:02.221Z,101270.22
2022-08-14T16:43:02.888Z,101280.59
2022-08-14T16:45:23.455Z,101272.00
2022-08-14T16:47:50.896Z,101279.75
2022-08-14T16:50:43.623Z,101268.81
2022-08-14T16:53:07.335Z,101273.09
2022-08-14T16:55:35.313Z,101278.34
2022-08-14T16:58:21.448Z,101278.72
2022-08-14T17:00:54.662Z,101281.69
2022-08-14T17:03:21.963Z,101273.22
2022-08-14T17:05:49.463Z,101290.38
2022-08-14T17:08:32.583Z,101290.59
2022-08-14T17:11:11.003Z,101291.88
2022-08-14T17:13:58.229Z,101282.13
2022-08-14T17:16:37.064Z,101288.19
2022-08-14T17:19:13.955Z,101289.09
2022-08-14T17:21:46.872Z,101286.41
2022-08-14T17:24:57.288Z,101291.56
2022-08-14T17:27:05.576Z,101285.00
2022-08-14T17:29:34.395Z,101285.13
2022-08-14T17:32:28.336Z,101288.22
2022-08-14T17:37:55.797Z,101287.34
2022-08-14T17:40:35.401Z,101292.34
2022-08-14T17:43:03.508Z,101298.84
2022-08-14T17:45:41.302Z,101299.84
2022-08-14T17:49:10.158Z,101292.53
2022-08-14T17:51:24.249Z,101292.03
2022-08-14T17:54:02.654Z,101287.41
2022-08-14T17:56:34.020Z,101296.06
2022-08-14T17:59:05.666Z,101298.09
2022-08-14T18:01:35.935Z,101289.91
2022-08-14T18:04:20.111Z,101302.84
2022-08-14T18:06:57.772Z,101295.25
2022-08-14T18:09:36.893Z,101301.59
2022-08-14T18:12:08.497Z,101293.91
2022-08-14T18:14:49.041Z,101300.88
2022-08-14T18:17:23.731Z,101296.63
2022-08-14T18:19:51.427Z,101307.47
2022-08-14T18:22:32.277Z,101301.25
2022-08-14T18:25:18.327Z,101304.41
2022-08-14T18:27:51.377Z,101299.31
2022-08-14T18:30:33.482Z,101297.75
2022-08-14T18:33:15.956Z,101289.81
2022-08-14T18:35:59.764Z,101286.06
2022-08-14T18:38:42.999Z,101286.75
2022-08-14T18:41:36.353Z,101279.72
2022-08-14T18:44:10.368Z,101284.34
2022-08-14T18:47:00.421Z,101284.84
2022-08-14T18:49:33.592Z,101285.72
2022-08-14T18:52:13.403Z,101283.66
2022-08-14T18:54:48.667Z,101292.22
2022-08-14T18:57:27.228Z,101292.53
2022-08-14T19:00:33.833Z,101287.06
2022-08-14T19:03:03.380Z,101286.03
2022-08-14T19:05:47.666Z,101293.75
2022-08-14T19:08:28.206Z,101286.03
2022-08-14T19:10:59.373Z,101287.94
2022-08-14T19:13:48.090Z,101289.28
2022-08-14T19:16:22.992Z,101294.94
2022-08-14T19:19:00.017Z,101289.47
2022-08-14T19:21:32.052Z,101287.41
2022-08-14T19:24:27.875Z,101294.94
2022-08-14T19:27:12.832Z,101289.13
2022-08-14T19:29:40.408Z,101295.66
2022-08-14T19:32:28.189Z,101292.19
2022-08-14T19:34:55.695Z,101291.88
2022-08-14T19:37:55.401Z,101300.81
2022-08-14T19:40:33.298Z,101300.94
2022-08-14T19:43:06.470Z,101299.38
2022-08-14T19:45:34.649Z,101291.47
2022-08-14T19:48:03.275Z,101301.13
2022-08-14T19:50:40.675Z,101298.03
2022-08-14T19:53:16.558Z,101290.47
2022-08-14T19:55:56.517Z,101294.91
2022-08-14T19:58:28.059Z,101299.38
2022-08-14T20:00:58.199Z,101291.84
2022-08-14T20:03:25.800Z,101298.34
2022-08-14T20:06:13.295Z,101305.22
2022-08-14T20:11:02.524Z,101294.25
2022-08-14T20:12:00.120Z,101296.31
2022-08-14T20:14:29.711Z,101296.28
2022-08-14T20:17:06.382Z,101295.25
2022-08-14T20:19:38.110Z,101295.28
2022-08-14T20:22:37.579Z,101293.88
2022-08-14T20:25:10.796Z,101283.66
2022-08-14T20:27:44.435Z,101288.09
2022-08-14T20:30:35.437Z,101287.09
2022-08-14T20:33:07.461Z,101284.66
2022-08-14T20:35:43.401Z,101289.81
2022-08-14T20:38:30.474Z,101281.78
2022-08-14T20:41:01.086Z,101285.38
2022-08-14T20:43:48.293Z,101278.53
2022-08-14T20:46:29.991Z,101280.16
2022-08-14T20:48:59.610Z,101284.97
2022-08-14T20:51:58.690Z,101284.66
2022-08-14T20:54:34.347Z,101285.72
2022-08-14T20:57:21.244Z,101293.56
2022-08-14T20:59:56.661Z,101289.13
2022-08-14T21:02:29.621Z,101283.28
2022-08-14T21:04:58.721Z,101289.13
2022-08-14T21:07:36.340Z,101287.44
2022-08-14T21:10:36.429Z,101297.34
2022-08-14T21:13:26.373Z,101293.25
2022-08-14T21:15:57.168Z,101300.47
2022-08-14T21:18:30.599Z,101297.03
2022-08-14T21:21:00.939Z,101295.63
2022-08-14T21:23:54.477Z,101295.13
2022-08-14T21:26:51.353Z,101296.00
2022-08-14T21:29:16.054Z,101287.09
2022-08-14T21:31:56.081Z,101278.16
2022-08-14T21:34:31.679Z,101293.94
2022-08-14T21:37:06.425Z,101286.06
2022-08-14T21:39:37.261Z,101284.00
2022-08-14T21:42:06.203Z,101286.03
2022-08-14T21:44:42.715Z,101282.97
2022-08-14T21:47:11.478Z,101283.84
2022-08-14T21:49:40.176Z,101279.53
2022-08-14T21:52:49.847Z,101282.28
2022-08-14T21:55:00.446Z,101279.19
2022-08-14T21:57:55.883Z,101285.72
2022-08-14T22:00:34.630Z,101278.84
2022-08-14T22:03:08.945Z,101276.63
2022-08-14T22:05:38.736Z,101264.78
2022-08-14T22:08:06.702Z,101269.59
2022-08-14T22:10:34.782Z,101267.56
2022-08-14T22:13:02.224Z,101277.13
2022-08-14T22:15:30.302Z,101265.63
2022-08-14T22:17:58.545Z,101256.88
2022-08-14T22:20:28.881Z,101259.94
2022-08-14T22:22:57.569Z,101261.69
2022-08-14T22:25:33.290Z,101264.06
2022-08-14T22:28:04.551Z,101265.06
2022-08-14T22:30:31.855Z,101256.53
2022-08-14T22:33:00.229Z,101257.91
2022-08-14T22:35:29.258Z,101243.69
2022-08-14T22:38:34.726Z,101237.69
2022-08-14T22:41:03.512Z,101241.44
2022-08-14T22:43:35.289Z,101250.34
2022-08-14T22:46:14.425Z,101247.09
2022-08-14T22:48:44.463Z,101239.38
2022-08-14T22:51:13.531Z,101241.81
2022-08-14T22:53:40.969Z,101247.78
2022-08-14T22:56:20.836Z,101241.81
2022-08-14T22:58:53.678Z,101242.13
2022-08-14T23:01:24.549Z,101237.34
2022-08-14T23:04:12.041Z,101232.50
2022-08-14T23:07:02.077Z,101238.69
2022-08-14T23:09:35.846Z,101232.19
2022-08-14T23:12:05.705Z,101230.41
2022-08-14T23:14:53.039Z,101233.50
2022-08-14T23:17:22.736Z,101232.44
2022-08-14T23:19:56.443Z,101232.75
2022-08-14T23:22:26.200Z,101234.38
2022-08-14T23:24:56.697Z,101230.41
2022-08-14T23:27:31.893Z,101231.06
2022-08-14T23:30:31.723Z,101225.94
2022-08-14T23:33:03.024Z,101220.47
2022-08-14T23:35:33.227Z,101215.25
2022-08-14T23:38:02.224Z,101220.78
2022-08-14T23:40:30.271Z,101218.75
2022-08-14T23:43:09.529Z,101216.31
2022-08-14T23:45:39.375Z,101221.81
2022-08-14T23:48:12.572Z,101226.59
2022-08-14T23:50:40.911Z,101223.16
2022-08-14T23:53:48.134Z,101226.56
2022-08-14T23:56:18.014Z,101224.13
2022-08-14T23:58:49.427Z,101217.75
